sensor_id;sensor_type;location;lat;lon;timestamp;P1;durP1;ratioP1;P2;durP2;ratioP2
38937;SDS011;24727;51.974;20.868;2022-12-07T00:03:13;43.72;;;22.02;;
38937;SDS011;24727;51.974;20.868;2022-12-07T00:06:09;44.55;;;22.23;;
38937;SDS011;24727;51.974;20.868;2022-12-07T00:08:37;47.13;;;21.75;;
38937;SDS011;24727;51.974;20.868;2022-12-07T00:11:13;48.05;;;21.63;;
38937;SDS011;24727;51.974;20.868;2022-12-07T00:16:27;39.75;;;21.38;;
38937;SDS011;24727;51.974;20.868;2022-12-07T00:18:55;41.60;;;19.67;;
38937;SDS011;24727;51.974;20.868;2022-12-07T00:21:24;45.53;;;21.33;;
38937;SDS011;24727;51.974;20.868;2022-12-07T00:23:53;46.42;;;20.98;;
38937;SDS011;24727;51.974;20.868;2022-12-07T00:26:26;40.53;;;19.38;;
38937;SDS011;24727;51.974;20.868;2022-12-07T00:28:59;41.00;;;19.95;;
38937;SDS011;24727;51.974;20.868;2022-12-07T00:31:30;36.78;;;18.88;;
38937;SDS011;24727;51.974;20.868;2022-12-07T00:34:00;43.03;;;19.50;;
38937;SDS011;24727;51.974;20.868;2022-12-07T00:36:25;34.88;;;17.35;;
38937;SDS011;24727;51.974;20.868;2022-12-07T00:38:59;36.72;;;17.38;;
38937;SDS011;24727;51.974;20.868;2022-12-07T00:41:27;34.08;;;17.05;;
38937;SDS011;24727;51.974;20.868;2022-12-07T00:43:56;36.15;;;17.70;;
38937;SDS011;24727;51.974;20.868;2022-12-07T00:46:23;33.17;;;16.17;;
38937;SDS011;24727;51.974;20.868;2022-12-07T00:48:51;30.98;;;16.10;;
38937;SDS011;24727;51.974;20.868;2022-12-07T00:51:18;32.95;;;16.95;;
38937;SDS011;24727;51.974;20.868;2022-12-07T00:53:46;30.88;;;15.38;;
38937;SDS011;24727;51.974;20.868;2022-12-07T00:56:20;27.75;;;14.10;;
38937;SDS011;24727;51.974;20.868;2022-12-07T00:58:55;26.83;;;14.90;;
38937;SDS011;24727;51.974;20.868;2022-12-07T01:01:28;30.83;;;14.50;;
38937;SDS011;24727;51.974;20.868;2022-12-07T01:03:59;22.48;;;12.73;;
38937;SDS011;24727;51.974;20.868;2022-12-07T01:06:29;28.13;;;14.52;;
38937;SDS011;24727;51.974;20.868;2022-12-07T01:09:08;28.92;;;14.52;;
38937;SDS011;24727;51.974;20.868;2022-12-07T01:11:43;28.38;;;13.88;;
38937;SDS011;24727;51.974;20.868;2022-12-07T01:14:09;27.95;;;15.07;;
38937;SDS011;24727;51.974;20.868;2022-12-07T01:16:35;28.48;;;14.57;;
38937;SDS011;24727;51.974;20.868;2022-12-07T01:19:01;28.20;;;14.20;;
38937;SDS011;24727;51.974;20.868;2022-12-07T01:21:37;24.40;;;13.18;;
38937;SDS011;24727;51.974;20.868;2022-12-07T01:24:12;25.17;;;13.25;;
38937;SDS011;24727;51.974;20.868;2022-12-07T01:26:50;23.52;;;13.07;;
38937;SDS011;24727;51.974;20.868;2022-12-07T01:29:21;20.35;;;11.60;;
38937;SDS011;24727;51.974;20.868;2022-12-07T01:31:49;21.77;;;10.95;;
38937;SDS011;24727;51.974;20.868;2022-12-07T01:34:18;17.60;;;10.52;;
38937;SDS011;24727;51.974;20.868;2022-12-07T01:36:44;21.70;;;11.25;;
38937;SDS011;24727;51.974;20.868;2022-12-07T01:39:15;21.35;;;13.68;;
38937;SDS011;24727;51.974;20.868;2022-12-07T01:41:43;19.58;;;10.52;;
38937;SDS011;24727;51.974;20.868;2022-12-07T01:44:11;18.80;;;10.45;;
38937;SDS011;24727;51.974;20.868;2022-12-07T01:46:47;15.50;;;9.23;;
38937;SDS011;24727;51.974;20.868;2022-12-07T01:52:18;16.23;;;10.57;;
38937;SDS011;24727;51.974;20.868;2022-12-07T01:54:57;16.70;;;9.75;;
38937;SDS011;24727;51.974;20.868;2022-12-07T01:57:28;18.58;;;9.40;;
38937;SDS011;24727;51.974;20.868;2022-12-07T01:59:56;13.57;;;8.45;;
38937;SDS011;24727;51.974;20.868;2022-12-07T02:02:30;16.58;;;9.98;;
38937;SDS011;24727;51.974;20.868;2022-12-07T02:05:04;13.77;;;8.65;;
38937;SDS011;24727;51.974;20.868;2022-12-07T02:07:32;14.65;;;9.00;;
38937;SDS011;24727;51.974;20.868;2022-12-07T02:10:18;16.27;;;9.95;;
38937;SDS011;24727;51.974;20.868;2022-12-07T02:12:46;15.25;;;8.88;;
38937;SDS011;24727;51.974;20.868;2022-12-07T02:15:19;16.65;;;9.50;;
38937;SDS011;24727;51.974;20.868;2022-12-07T02:18:07;13.23;;;8.32;;
38937;SDS011;24727;51.974;20.868;2022-12-07T02:21:15;13.63;;;8.75;;
38937;SDS011;24727;51.974;20.868;2022-12-07T02:30:18;13.68;;;8.70;;
38937;SDS011;24727;51.974;20.868;2022-12-07T02:41:26;15.85;;;9.18;;
38937;SDS011;24727;51.974;20.868;2022-12-07T02:43:59;15.52;;;8.93;;
38937;SDS011;24727;51.974;20.868;2022-12-07T02:46:30;14.93;;;8.30;;
38937;SDS011;24727;51.974;20.868;2022-12-07T02:49:06;15.52;;;9.05;;
38937;SDS011;24727;51.974;20.868;2022-12-07T02:51:38;14.38;;;9.00;;
38937;SDS011;24727;51.974;20.868;2022-12-07T02:54:13;17.75;;;9.10;;
38937;SDS011;24727;51.974;20.868;2022-12-07T02:56:52;14.63;;;8.88;;
38937;SDS011;24727;51.974;20.868;2022-12-07T03:08:15;31.00;;;20.63;;
38937;SDS011;24727;51.974;20.868;2022-12-07T03:11:06;34.30;;;23.38;;
38937;SDS011;24727;51.974;20.868;2022-12-07T03:24:24;19.33;;;11.30;;
38937;SDS011;24727;51.974;20.868;2022-12-07T03:27:03;16.30;;;9.00;;
38937;SDS011;24727;51.974;20.868;2022-12-07T03:29:36;15.88;;;9.90;;
38937;SDS011;24727;51.974;20.868;2022-12-07T03:32:48;19.35;;;11.60;;
38937;SDS011;24727;51.974;20.868;2022-12-07T03:35:03;21.42;;;13.10;;
38937;SDS011;24727;51.974;20.868;2022-12-07T03:37:49;20.65;;;13.43;;
38937;SDS011;24727;51.974;20.868;2022-12-07T03:43:30;42.13;;;29.33;;
38937;SDS011;24727;51.974;20.868;2022-12-07T03:46:00;70.35;;;48.10;;
38937;SDS011;24727;51.974;20.868;2022-12-07T03:49:05;65.70;;;45.38;;
38937;SDS011;24727;51.974;20.868;2022-12-07T03:51:46;47.88;;;31.88;;
38937;SDS011;24727;51.974;20.868;2022-12-07T03:57:09;50.22;;;33.50;;
38937;SDS011;24727;51.974;20.868;2022-12-07T03:59:43;39.55;;;27.85;;
38937;SDS011;24727;51.974;20.868;2022-12-07T04:02:26;32.25;;;21.52;;
38937;SDS011;24727;51.974;20.868;2022-12-07T04:07:28;31.58;;;21.83;;
38937;SDS011;24727;51.974;20.868;2022-12-07T04:10:03;27.02;;;15.65;;
38937;SDS011;24727;51.974;20.868;2022-12-07T04:12:30;20.38;;;13.50;;
38937;SDS011;24727;51.974;20.868;2022-12-07T04:15:06;19.70;;;12.40;;
38937;SDS011;24727;51.974;20.868;2022-12-07T04:17:35;18.13;;;11.48;;
38937;SDS011;24727;51.974;20.868;2022-12-07T04:20:03;18.65;;;10.40;;
38937;SDS011;24727;51.974;20.868;2022-12-07T04:22:48;16.35;;;9.55;;
38937;SDS011;24727;51.974;20.868;2022-12-07T04:25:21;18.73;;;11.32;;
38937;SDS011;24727;51.974;20.868;2022-12-07T04:27:56;15.40;;;9.45;;
38937;SDS011;24727;51.974;20.868;2022-12-07T04:33:00;16.02;;;9.82;;
38937;SDS011;24727;51.974;20.868;2022-12-07T04:38:23;17.92;;;10.35;;
38937;SDS011;24727;51.974;20.868;2022-12-07T04:40:55;15.50;;;9.25;;
38937;SDS011;24727;51.974;20.868;2022-12-07T04:43:27;18.92;;;10.25;;
38937;SDS011;24727;51.974;20.868;2022-12-07T04:45:54;21.08;;;9.73;;
38937;SDS011;24727;51.974;20.868;2022-12-07T04:48:23;17.10;;;9.80;;
38937;SDS011;24727;51.974;20.868;2022-12-07T04:50:49;17.27;;;9.50;;
38937;SDS011;24727;51.974;20.868;2022-12-07T04:53:16;18.55;;;9.90;;
38937;SDS011;24727;51.974;20.868;2022-12-07T04:55:45;21.85;;;10.50;;
38937;SDS011;24727;51.974;20.868;2022-12-07T04:58:28;19.40;;;10.10;;
38937;SDS011;24727;51.974;20.868;2022-12-07T05:01:02;21.45;;;11.10;;
38937;SDS011;24727;51.974;20.868;2022-12-07T05:03:45;19.58;;;10.13;;
38937;SDS011;24727;51.974;20.868;2022-12-07T05:12:30;21.63;;;12.85;;
38937;SDS011;24727;51.974;20.868;2022-12-07T05:15:19;22.40;;;13.30;;
38937;SDS011;24727;51.974;20.868;2022-12-07T05:20:42;27.52;;;16.67;;
38937;SDS011;24727;51.974;20.868;2022-12-07T05:26:30;29.77;;;18.65;;
38937;SDS011;24727;51.974;20.868;2022-12-07T05:29:14;25.23;;;14.63;;
38937;SDS011;24727;51.974;20.868;2022-12-07T05:31:53;33.83;;;18.20;;
38937;SDS011;24727;51.974;20.868;2022-12-07T05:34:31;24.30;;;12.63;;
38937;SDS011;24727;51.974;20.868;2022-12-07T05:42:38;22.25;;;11.52;;
38937;SDS011;24727;51.974;20.868;2022-12-07T05:45:19;21.35;;;10.77;;
38937;SDS011;24727;51.974;20.868;2022-12-07T05:48:14;18.67;;;9.95;;
38937;SDS011;24727;51.974;20.868;2022-12-07T05:50:49;19.55;;;10.27;;
38937;SDS011;24727;51.974;20.868;2022-12-07T05:53:28;21.20;;;10.13;;
38937;SDS011;24727;51.974;20.868;2022-12-07T05:56:04;19.27;;;10.18;;
38937;SDS011;24727;51.974;20.868;2022-12-07T05:58:42;19.52;;;10.00;;
38937;SDS011;24727;51.974;20.868;2022-12-07T06:01:29;13.65;;;8.90;;
38937;SDS011;24727;51.974;20.868;2022-12-07T06:03:55;19.60;;;9.82;;
38937;SDS011;24727;51.974;20.868;2022-12-07T06:06:27;16.05;;;9.48;;
38937;SDS011;24727;51.974;20.868;2022-12-07T06:09:00;21.33;;;9.70;;
38937;SDS011;24727;51.974;20.868;2022-12-07T06:11:27;17.13;;;9.05;;
38937;SDS011;24727;51.974;20.868;2022-12-07T06:14:12;15.98;;;8.52;;
38937;SDS011;24727;51.974;20.868;2022-12-07T06:16:40;18.65;;;9.43;;
38937;SDS011;24727;51.974;20.868;2022-12-07T06:19:06;14.93;;;8.80;;
38937;SDS011;24727;51.974;20.868;2022-12-07T06:21:33;14.95;;;8.57;;
38937;SDS011;24727;51.974;20.868;2022-12-07T06:23:59;18.83;;;10.52;;
38937;SDS011;24727;51.974;20.868;2022-12-07T06:26:25;19.48;;;12.45;;
38937;SDS011;24727;51.974;20.868;2022-12-07T06:28:54;21.00;;;11.68;;
38937;SDS011;24727;51.974;20.868;2022-12-07T06:31:21;20.42;;;11.48;;
38937;SDS011;24727;51.974;20.868;2022-12-07T06:33:48;21.60;;;11.65;;
38937;SDS011;24727;51.974;20.868;2022-12-07T06:36:19;23.05;;;13.32;;
38937;SDS011;24727;51.974;20.868;2022-12-07T06:38:45;21.05;;;11.02;;
38937;SDS011;24727;51.974;20.868;2022-12-07T06:41:11;22.92;;;11.77;;
38937;SDS011;24727;51.974;20.868;2022-12-07T06:43:37;17.88;;;10.75;;
38937;SDS011;24727;51.974;20.868;2022-12-07T06:46:04;22.25;;;11.35;;
38937;SDS011;24727;51.974;20.868;2022-12-07T06:48:30;32.15;;;15.50;;
38937;SDS011;24727;51.974;20.868;2022-12-07T06:50:56;27.48;;;14.35;;
38937;SDS011;24727;51.974;20.868;2022-12-07T06:53:22;30.85;;;15.80;;
38937;SDS011;24727;51.974;20.868;2022-12-07T06:55:48;25.15;;;13.20;;
38937;SDS011;24727;51.974;20.868;2022-12-07T06:58:15;26.38;;;13.60;;
38937;SDS011;24727;51.974;20.868;2022-12-07T07:00:42;34.45;;;20.92;;
38937;SDS011;24727;51.974;20.868;2022-12-07T07:03:09;35.00;;;20.08;;
38937;SDS011;24727;51.974;20.868;2022-12-07T07:05:47;24.48;;;14.10;;
38937;SDS011;24727;51.974;20.868;2022-12-07T07:08:15;24.92;;;14.70;;
38937;SDS011;24727;51.974;20.868;2022-12-07T07:10:42;22.77;;;12.63;;
38937;SDS011;24727;51.974;20.868;2022-12-07T07:13:15;18.40;;;10.60;;
38937;SDS011;24727;51.974;20.868;2022-12-07T07:15:47;23.25;;;12.40;;
38937;SDS011;24727;51.974;20.868;2022-12-07T07:18:14;20.25;;;11.45;;
38937;SDS011;24727;51.974;20.868;2022-12-07T07:20:40;32.78;;;20.55;;
38937;SDS011;24727;51.974;20.868;2022-12-07T07:23:08;33.15;;;20.88;;
38937;SDS011;24727;51.974;20.868;2022-12-07T07:25:34;33.58;;;21.00;;
38937;SDS011;24727;51.974;20.868;2022-12-07T07:28:00;40.50;;;25.85;;
38937;SDS011;24727;51.974;20.868;2022-12-07T07:30:28;48.33;;;30.38;;
38937;SDS011;24727;51.974;20.868;2022-12-07T07:33:01;45.70;;;30.50;;
38937;SDS011;24727;51.974;20.868;2022-12-07T07:35:30;45.13;;;29.88;;
38937;SDS011;24727;51.974;20.868;2022-12-07T07:38:01;47.27;;;29.60;;
38937;SDS011;24727;51.974;20.868;2022-12-07T07:40:28;50.45;;;33.58;;
38937;SDS011;24727;51.974;20.868;2022-12-07T07:42:54;47.50;;;30.75;;
38937;SDS011;24727;51.974;20.868;2022-12-07T07:45:21;50.05;;;32.55;;
38937;SDS011;24727;51.974;20.868;2022-12-07T07:47:55;40.22;;;26.60;;
38937;SDS011;24727;51.974;20.868;2022-12-07T07:50:29;48.20;;;30.65;;
38937;SDS011;24727;51.974;20.868;2022-12-07T07:52:56;38.10;;;25.73;;
38937;SDS011;24727;51.974;20.868;2022-12-07T07:55:23;27.05;;;16.88;;
38937;SDS011;24727;51.974;20.868;2022-12-07T07:57:50;22.60;;;11.77;;
38937;SDS011;24727;51.974;20.868;2022-12-07T08:00:32;22.58;;;10.27;;
38937;SDS011;24727;51.974;20.868;2022-12-07T08:05:36;17.75;;;10.05;;
38937;SDS011;24727;51.974;20.868;2022-12-07T08:08:04;22.75;;;12.05;;
38937;SDS011;24727;51.974;20.868;2022-12-07T08:10:30;22.33;;;11.55;;
38937;SDS011;24727;51.974;20.868;2022-12-07T08:12:58;22.38;;;10.00;;
38937;SDS011;24727;51.974;20.868;2022-12-07T08:15:37;29.48;;;11.68;;
38937;SDS011;24727;51.974;20.868;2022-12-07T08:18:07;23.17;;;11.25;;
38937;SDS011;24727;51.974;20.868;2022-12-07T08:23:09;23.85;;;10.60;;
38937;SDS011;24727;51.974;20.868;2022-12-07T08:25:36;24.60;;;11.68;;
38937;SDS011;24727;51.974;20.868;2022-12-07T08:28:04;24.65;;;10.85;;
38937;SDS011;24727;51.974;20.868;2022-12-07T08:30:31;21.23;;;10.35;;
38937;SDS011;24727;51.974;20.868;2022-12-07T08:33:04;29.30;;;12.20;;
38937;SDS011;24727;51.974;20.868;2022-12-07T08:35:32;27.85;;;12.77;;
38937;SDS011;24727;51.974;20.868;2022-12-07T08:38:01;28.58;;;12.23;;
38937;SDS011;24727;51.974;20.868;2022-12-07T08:40:31;28.08;;;12.18;;
38937;SDS011;24727;51.974;20.868;2022-12-07T08:42:59;31.17;;;13.25;;
38937;SDS011;24727;51.974;20.868;2022-12-07T08:50:37;31.17;;;14.40;;
38937;SDS011;24727;51.974;20.868;2022-12-07T08:53:04;33.00;;;13.43;;
38937;SDS011;24727;51.974;20.868;2022-12-07T08:55:33;29.45;;;13.35;;
38937;SDS011;24727;51.974;20.868;2022-12-07T08:58:02;39.17;;;14.05;;
38937;SDS011;24727;51.974;20.868;2022-12-07T09:00:29;32.42;;;13.88;;
38937;SDS011;24727;51.974;20.868;2022-12-07T09:08:05;39.17;;;16.17;;
38937;SDS011;24727;51.974;20.868;2022-12-07T09:10:40;42.53;;;14.75;;
38937;SDS011;24727;51.974;20.868;2022-12-07T09:13:07;33.53;;;15.95;;
38937;SDS011;24727;51.974;20.868;2022-12-07T09:18:17;38.53;;;16.52;;
38937;SDS011;24727;51.974;20.868;2022-12-07T09:20:44;41.15;;;15.45;;
38937;SDS011;24727;51.974;20.868;2022-12-07T09:39:39;29.65;;;13.13;;
38937;SDS011;24727;51.974;20.868;2022-12-07T09:45:26;28.63;;;11.57;;
38937;SDS011;24727;51.974;20.868;2022-12-07T09:50:44;28.58;;;13.15;;
38937;SDS011;24727;51.974;20.868;2022-12-07T09:53:26;30.38;;;12.27;;
38937;SDS011;24727;51.974;20.868;2022-12-07T09:56:00;28.95;;;12.88;;
38937;SDS011;24727;51.974;20.868;2022-12-07T09:58:41;27.77;;;12.85;;
38937;SDS011;24727;51.974;20.868;2022-12-07T10:01:16;24.83;;;12.52;;
38937;SDS011;24727;51.974;20.868;2022-12-07T10:06:44;24.92;;;12.32;;
38937;SDS011;24727;51.974;20.868;2022-12-07T10:09:17;21.17;;;11.30;;
38937;SDS011;24727;51.974;20.868;2022-12-07T10:12:06;21.45;;;11.48;;
38937;SDS011;24727;51.974;20.868;2022-12-07T10:14:53;22.30;;;10.95;;
38937;SDS011;24727;51.974;20.868;2022-12-07T10:20:12;22.73;;;11.13;;
38937;SDS011;24727;51.974;20.868;2022-12-07T10:25:38;21.27;;;10.93;;
38937;SDS011;24727;51.974;20.868;2022-12-07T10:31:03;22.42;;;10.82;;
38937;SDS011;24727;51.974;20.868;2022-12-07T10:33:50;24.50;;;11.43;;
38937;SDS011;24727;51.974;20.868;2022-12-07T10:39:21;20.08;;;9.90;;
38937;SDS011;24727;51.974;20.868;2022-12-07T10:41:55;22.52;;;11.35;;
38937;SDS011;24727;51.974;20.868;2022-12-07T10:45:36;30.02;;;18.52;;
38937;SDS011;24727;51.974;20.868;2022-12-07T10:48:33;30.02;;;19.90;;
38937;SDS011;24727;51.974;20.868;2022-12-07T10:57:11;29.85;;;18.58;;
38937;SDS011;24727;51.974;20.868;2022-12-07T11:06:10;25.52;;;17.38;;
38937;SDS011;24727;51.974;20.868;2022-12-07T11:15:11;32.25;;;23.17;;
38937;SDS011;24727;51.974;20.868;2022-12-07T11:18:02;25.92;;;15.48;;
38937;SDS011;24727;51.974;20.868;2022-12-07T11:39:28;26.30;;;12.88;;
38937;SDS011;24727;51.974;20.868;2022-12-07T11:42:04;27.95;;;13.57;;
38937;SDS011;24727;51.974;20.868;2022-12-07T11:44:52;22.60;;;12.25;;
38937;SDS011;24727;51.974;20.868;2022-12-07T11:47:44;24.70;;;12.15;;
38937;SDS011;24727;51.974;20.868;2022-12-07T12:09:43;22.08;;;11.32;;
38937;SDS011;24727;51.974;20.868;2022-12-07T12:12:54;17.40;;;10.07;;
38937;SDS011;24727;51.974;20.868;2022-12-07T12:15:42;20.45;;;10.13;;
38937;SDS011;24727;51.974;20.868;2022-12-07T12:21:38;18.42;;;11.15;;
38937;SDS011;24727;51.974;20.868;2022-12-07T12:24:17;20.38;;;10.95;;
38937;SDS011;24727;51.974;20.868;2022-12-07T12:26:51;21.63;;;11.73;;
38937;SDS011;24727;51.974;20.868;2022-12-07T12:29:23;18.17;;;10.50;;
38937;SDS011;24727;51.974;20.868;2022-12-07T12:38:26;26.15;;;15.18;;
38937;SDS011;24727;51.974;20.868;2022-12-07T12:45:02;25.77;;;17.48;;
38937;SDS011;24727;51.974;20.868;2022-12-07T12:48:02;22.58;;;13.43;;
38937;SDS011;24727;51.974;20.868;2022-12-07T12:50:33;22.10;;;13.25;;
38937;SDS011;24727;51.974;20.868;2022-12-07T12:56:07;24.67;;;15.27;;
38937;SDS011;24727;51.974;20.868;2022-12-07T12:58:46;23.33;;;14.43;;
38937;SDS011;24727;51.974;20.868;2022-12-07T13:03:58;20.90;;;13.57;;
38937;SDS011;24727;51.974;20.868;2022-12-07T13:08:53;18.08;;;10.77;;
38937;SDS011;24727;51.974;20.868;2022-12-07T13:11:41;15.55;;;9.93;;
38937;SDS011;24727;51.974;20.868;2022-12-07T13:23:37;14.27;;;9.27;;
38937;SDS011;24727;51.974;20.868;2022-12-07T13:31:53;15.98;;;10.65;;
38937;SDS011;24727;51.974;20.868;2022-12-07T13:34:30;15.48;;;9.95;;
38937;SDS011;24727;51.974;20.868;2022-12-07T13:37:14;15.55;;;8.82;;
38937;SDS011;24727;51.974;20.868;2022-12-07T13:39:52;17.60;;;10.38;;
38937;SDS011;24727;51.974;20.868;2022-12-07T13:47:32;15.55;;;9.05;;
38937;SDS011;24727;51.974;20.868;2022-12-07T13:52:59;15.20;;;10.25;;
38937;SDS011;24727;51.974;20.868;2022-12-07T13:55:33;14.10;;;8.90;;
38937;SDS011;24727;51.974;20.868;2022-12-07T13:57:59;15.63;;;9.68;;
38937;SDS011;24727;51.974;20.868;2022-12-07T14:00:41;15.15;;;10.00;;
38937;SDS011;24727;51.974;20.868;2022-12-07T14:05:40;14.73;;;9.68;;
38937;SDS011;24727;51.974;20.868;2022-12-07T14:10:59;19.50;;;11.85;;
38937;SDS011;24727;51.974;20.868;2022-12-07T14:16:27;22.00;;;14.05;;
38937;SDS011;24727;51.974;20.868;2022-12-07T14:18:56;17.17;;;12.18;;
38937;SDS011;24727;51.974;20.868;2022-12-07T14:21:24;20.35;;;14.00;;
38937;SDS011;24727;51.974;20.868;2022-12-07T14:26:39;29.88;;;18.85;;
38937;SDS011;24727;51.974;20.868;2022-12-07T14:31:57;18.00;;;10.93;;
38937;SDS011;24727;51.974;20.868;2022-12-07T14:34:28;19.20;;;10.93;;
38937;SDS011;24727;51.974;20.868;2022-12-07T14:36:53;17.35;;;11.40;;
38937;SDS011;24727;51.974;20.868;2022-12-07T14:39:19;19.02;;;10.70;;
38937;SDS011;24727;51.974;20.868;2022-12-07T14:41:51;19.65;;;11.10;;
38937;SDS011;24727;51.974;20.868;2022-12-07T14:44:23;17.20;;;10.57;;
38937;SDS011;24727;51.974;20.868;2022-12-07T14:46:49;17.25;;;9.82;;
38937;SDS011;24727;51.974;20.868;2022-12-07T14:49:18;15.43;;;9.50;;
38937;SDS011;24727;51.974;20.868;2022-12-07T14:51:51;17.67;;;10.45;;
38937;SDS011;24727;51.974;20.868;2022-12-07T14:54:21;17.05;;;9.60;;
38937;SDS011;24727;51.974;20.868;2022-12-07T14:57:04;15.65;;;9.23;;
38937;SDS011;24727;51.974;20.868;2022-12-07T14:59:43;16.77;;;8.80;;
38937;SDS011;24727;51.974;20.868;2022-12-07T15:02:09;14.45;;;8.50;;
38937;SDS011;24727;51.974;20.868;2022-12-07T15:04:44;14.32;;;7.75;;
38937;SDS011;24727;51.974;20.868;2022-12-07T15:07:23;16.02;;;8.60;;
38937;SDS011;24727;51.974;20.868;2022-12-07T15:09:52;14.07;;;8.40;;
38937;SDS011;24727;51.974;20.868;2022-12-07T15:12:22;13.55;;;7.47;;
38937;SDS011;24727;51.974;20.868;2022-12-07T15:14:51;14.05;;;8.40;;
38937;SDS011;24727;51.974;20.868;2022-12-07T15:17:19;12.60;;;7.85;;
38937;SDS011;24727;51.974;20.868;2022-12-07T15:19:46;13.13;;;8.45;;
38937;SDS011;24727;51.974;20.868;2022-12-07T15:22:14;15.20;;;9.00;;
38937;SDS011;24727;51.974;20.868;2022-12-07T15:24:41;15.80;;;9.10;;
38937;SDS011;24727;51.974;20.868;2022-12-07T15:27:08;15.02;;;8.38;;
38937;SDS011;24727;51.974;20.868;2022-12-07T15:29:35;15.23;;;9.20;;
38937;SDS011;24727;51.974;20.868;2022-12-07T15:32:01;15.68;;;8.85;;
38937;SDS011;24727;51.974;20.868;2022-12-07T15:34:27;16.83;;;9.52;;
38937;SDS011;24727;51.974;20.868;2022-12-07T15:39:23;18.92;;;10.70;;
38937;SDS011;24727;51.974;20.868;2022-12-07T15:41:51;23.35;;;10.68;;
38937;SDS011;24727;51.974;20.868;2022-12-07T15:44:17;22.40;;;11.48;;
38937;SDS011;24727;51.974;20.868;2022-12-07T15:47:03;22.77;;;11.27;;
38937;SDS011;24727;51.974;20.868;2022-12-07T15:49:30;22.17;;;11.55;;
38937;SDS011;24727;51.974;20.868;2022-12-07T15:51:57;21.92;;;12.25;;
38937;SDS011;24727;51.974;20.868;2022-12-07T15:54:25;27.92;;;15.85;;
38937;SDS011;24727;51.974;20.868;2022-12-07T15:59:22;25.40;;;12.90;;
38937;SDS011;24727;51.974;20.868;2022-12-07T16:01:48;29.20;;;15.60;;
38937;SDS011;24727;51.974;20.868;2022-12-07T16:04:15;29.23;;;15.18;;
38937;SDS011;24727;51.974;20.868;2022-12-07T16:06:42;29.48;;;14.10;;
38937;SDS011;24727;51.974;20.868;2022-12-07T16:09:08;39.30;;;16.65;;
38937;SDS011;24727;51.974;20.868;2022-12-07T16:11:35;34.50;;;17.80;;
38937;SDS011;24727;51.974;20.868;2022-12-07T16:14:01;37.03;;;17.50;;
38937;SDS011;24727;51.974;20.868;2022-12-07T16:16:29;34.20;;;17.02;;
38937;SDS011;24727;51.974;20.868;2022-12-07T16:18:57;32.25;;;16.17;;
38937;SDS011;24727;51.974;20.868;2022-12-07T16:21:24;35.88;;;18.23;;
38937;SDS011;24727;51.974;20.868;2022-12-07T16:23:52;29.23;;;16.15;;
38937;SDS011;24727;51.974;20.868;2022-12-07T16:26:20;38.55;;;17.77;;
38937;SDS011;24727;51.974;20.868;2022-12-07T16:28:50;30.63;;;17.83;;
38937;SDS011;24727;51.974;20.868;2022-12-07T16:31:18;35.20;;;16.52;;
38937;SDS011;24727;51.974;20.868;2022-12-07T16:33:46;26.33;;;14.23;;
38937;SDS011;24727;51.974;20.868;2022-12-07T16:36:13;26.50;;;14.45;;
38937;SDS011;24727;51.974;20.868;2022-12-07T16:38:42;23.65;;;13.93;;
38937;SDS011;24727;51.974;20.868;2022-12-07T16:41:08;25.23;;;13.50;;
38937;SDS011;24727;51.974;20.868;2022-12-07T16:43:35;25.08;;;13.93;;
38937;SDS011;24727;51.974;20.868;2022-12-07T16:46:03;22.42;;;12.55;;
38937;SDS011;24727;51.974;20.868;2022-12-07T16:51:04;23.90;;;12.77;;
38937;SDS011;24727;51.974;20.868;2022-12-07T16:53:33;23.98;;;12.38;;
38937;SDS011;24727;51.974;20.868;2022-12-07T16:56:01;23.33;;;12.82;;
38937;SDS011;24727;51.974;20.868;2022-12-07T16:58:29;21.70;;;12.77;;
38937;SDS011;24727;51.974;20.868;2022-12-07T17:00:56;24.75;;;13.80;;
38937;SDS011;24727;51.974;20.868;2022-12-07T17:03:22;26.55;;;13.75;;
38937;SDS011;24727;51.974;20.868;2022-12-07T17:05:48;22.67;;;11.90;;
38937;SDS011;24727;51.974;20.868;2022-12-07T17:08:15;26.63;;;13.95;;
38937;SDS011;24727;51.974;20.868;2022-12-07T17:10:42;24.13;;;12.40;;
38937;SDS011;24727;51.974;20.868;2022-12-07T17:13:10;22.52;;;12.15;;
38937;SDS011;24727;51.974;20.868;2022-12-07T17:15:59;24.40;;;13.40;;
38937;SDS011;24727;51.974;20.868;2022-12-07T17:18:27;23.73;;;12.50;;
38937;SDS011;24727;51.974;20.868;2022-12-07T17:21:05;21.95;;;11.75;;
38937;SDS011;24727;51.974;20.868;2022-12-07T17:23:34;24.60;;;13.40;;
38937;SDS011;24727;51.974;20.868;2022-12-07T17:26:09;22.42;;;12.93;;
38937;SDS011;24727;51.974;20.868;2022-12-07T17:28:39;23.15;;;13.38;;
38937;SDS011;24727;51.974;20.868;2022-12-07T17:31:06;20.88;;;11.35;;
38937;SDS011;24727;51.974;20.868;2022-12-07T17:33:41;20.33;;;11.77;;
38937;SDS011;24727;51.974;20.868;2022-12-07T17:36:14;24.10;;;11.98;;
38937;SDS011;24727;51.974;20.868;2022-12-07T17:41:17;20.33;;;12.35;;
38937;SDS011;24727;51.974;20.868;2022-12-07T17:44:08;19.48;;;10.70;;
38937;SDS011;24727;51.974;20.868;2022-12-07T17:46:42;24.00;;;13.30;;
38937;SDS011;24727;51.974;20.868;2022-12-07T17:49:08;24.42;;;12.50;;
38937;SDS011;24727;51.974;20.868;2022-12-07T17:51:36;23.80;;;12.93;;
38937;SDS011;24727;51.974;20.868;2022-12-07T17:54:20;19.73;;;11.32;;
38937;SDS011;24727;51.974;20.868;2022-12-07T17:56:47;21.20;;;11.73;;
38937;SDS011;24727;51.974;20.868;2022-12-07T17:59:14;19.88;;;11.52;;
38937;SDS011;24727;51.974;20.868;2022-12-07T18:01:41;19.42;;;12.20;;
38937;SDS011;24727;51.974;20.868;2022-12-07T18:04:10;19.48;;;11.00;;
38937;SDS011;24727;51.974;20.868;2022-12-07T18:06:41;20.92;;;11.52;;
38937;SDS011;24727;51.974;20.868;2022-12-07T18:09:09;17.17;;;11.07;;
38937;SDS011;24727;51.974;20.868;2022-12-07T18:11:35;17.83;;;11.10;;
38937;SDS011;24727;51.974;20.868;2022-12-07T18:14:02;18.48;;;10.43;;
38937;SDS011;24727;51.974;20.868;2022-12-07T18:16:29;20.95;;;11.65;;
38937;SDS011;24727;51.974;20.868;2022-12-07T18:18:59;25.90;;;13.60;;
38937;SDS011;24727;51.974;20.868;2022-12-07T18:21:32;19.85;;;10.88;;
38937;SDS011;24727;51.974;20.868;2022-12-07T18:24:00;21.73;;;12.05;;
38937;SDS011;24727;51.974;20.868;2022-12-07T18:26:31;19.98;;;11.23;;
38937;SDS011;24727;51.974;20.868;2022-12-07T18:29:00;18.80;;;11.27;;
38937;SDS011;24727;51.974;20.868;2022-12-07T18:31:27;17.77;;;12.25;;
38937;SDS011;24727;51.974;20.868;2022-12-07T18:33:54;15.57;;;9.50;;
38937;SDS011;24727;51.974;20.868;2022-12-07T18:36:22;19.23;;;12.05;;
38937;SDS011;24727;51.974;20.868;2022-12-07T18:38:48;19.50;;;12.18;;
38937;SDS011;24727;51.974;20.868;2022-12-07T18:41:16;18.95;;;12.10;;
38937;SDS011;24727;51.974;20.868;2022-12-07T18:43:43;16.85;;;11.05;;
38937;SDS011;24727;51.974;20.868;2022-12-07T18:46:17;17.55;;;12.73;;
38937;SDS011;24727;51.974;20.868;2022-12-07T18:48:45;16.48;;;11.20;;
38937;SDS011;24727;51.974;20.868;2022-12-07T18:51:14;16.98;;;12.88;;
38937;SDS011;24727;51.974;20.868;2022-12-07T18:53:41;20.80;;;15.82;;
38937;SDS011;24727;51.974;20.868;2022-12-07T18:56:15;20.70;;;14.88;;